KTWF

Joslin Field - Magic Valley Regional Airport

Twin Falls, Idaho, USA
KTWF 231720Z 2318/2418 26020G30KT P6SM SKC FM232300 28015G25KT P6SM SKC FM240300 20010KT P6SM SCT080 FM240900 10010KT P6SM SKC
Issued Valid From Valid To
Apr-23 @ 17:20 UTC
(6 hours ago)
Apr-23 @ 18:00 UTC
(5 hours ago)
Apr-24 @ 18:00 UTC
(in 19 hours)
Apr-23 @ 18:00 to Apr-23 @ 23:00
KTWF 231720Z 2318/2418 26020G30KT P6SM SKC
Wind Visibility Clouds
260° at 20 knots
 Gusting to 30 knots
Greater than 6 miles
  • Clear skies
From Apr-23 @ 23:00 to Apr-24 @ 03:00
FM232300 28015G25KT P6SM SKC
Wind Visibility Clouds
280° at 15 knots
 Gusting to 25 knots
Greater than 6 miles
  • Clear skies
From Apr-24 @ 03:00 to Apr-24 @ 09:00
FM240300 20010KT P6SM SCT080
Wind Visibility Clouds
200° at 10 knots Greater than 6 miles
  • Scattered at 8,000' AGL
From Apr-24 @ 09:00 to Apr-24 @ 18:00
FM240900 10010KT P6SM SKC
Wind Visibility Clouds
100° at 10 knots Greater than 6 miles
  • Clear skies
KTWF 231720Z 2318/2418 26020G30KT P6SM SKC FM232300 28015G25KT P6SM SKC FM240300 20010KT P6SM SCT080 FM240900 10010KT P6SM SKC
Issued Apr-23 @ 17:20 UTC
(6 hours ago)
Valid From Apr-23 @ 18:00 UTC
(5 hours ago)
Valid To Apr-24 @ 18:00 UTC
(in 19 hours)
Apr-23 @ 18:00 - Apr-23 @ 23:00
Wind Visibility
260° at 20 knots
 Gusting to 30 knots
Greater than 6 miles
Clouds
  • Clear skies
From Apr-23 @ 23:00 - Apr-24 @ 03:00
Wind Visibility
280° at 15 knots
 Gusting to 25 knots
Greater than 6 miles
Clouds
  • Clear skies
From Apr-24 @ 03:00 - Apr-24 @ 09:00
Wind Visibility
200° at 10 knots Greater than 6 miles
Clouds
  • Scattered at 8,000' AGL
From Apr-24 @ 09:00 - Apr-24 @ 18:00
Wind Visibility
100° at 10 knots Greater than 6 miles
Clouds
  • Clear skies